Time;durP1;ratioP1;P1;durP2;ratioP2;P2;SDS_P1;SDS_P2;PMS_P1;PMS_P2;Temp;Humidity;BMP_temperature;BMP_pressure;BME280_temperature;BME280_humidity;BME280_pressure;Samples;Min_cycle;Max_cycle;Signal;HPM_P1;HPM_P2
2022/08/20 00:00:28;;;;;;;23.63;18.20;;;;;;;22.67;58.12;99734.44;4978469;28;20041;-84
2022/08/20 00:02:58;;;;;;;27.33;18.90;;;;;;;22.65;58.46;99737.38;4994460;28;20048;-84
2022/08/20 00:05:32;;;;;;;25.27;18.35;;;;;;;22.55;58.73;99742.41;5008753;28;20066;-85
2022/08/20 00:08:00;;;;;;;23.15;17.95;;;;;;;22.60;58.17;99739.06;5009796;28;20046;-84
2022/08/20 00:10:28;;;;;;;25.05;18.27;;;;;;;22.63;58.21;99739.47;5011595;28;20099;-84
2022/08/20 00:12:55;;;;;;;24.30;18.65;;;;;;;22.61;58.06;99735.31;4999056;28;20077;-85
2022/08/20 00:15:27;;;;;;;23.75;18.08;;;;;;;22.53;58.07;99737.22;4980022;28;20042;-84
2022/08/20 00:17:54;;;;;;;25.50;18.43;;;;;;;22.58;58.12;99735.75;4998020;28;20124;-84
2022/08/20 00:20:24;;;;;;;25.60;19.85;;;;;;;22.54;57.76;99738.91;5012411;28;20487;-84
2022/08/20 00:22:50;;;;;;;22.33;17.95;;;;;;;22.58;57.39;99743.88;5012697;28;20042;-84
2022/08/20 00:25:18;;;;;;;28.08;18.10;;;;;;;22.57;57.28;99748.44;5015035;28;20052;-84
2022/08/20 00:27:44;;;;;;;25.30;18.83;;;;;;;22.53;57.40;99745.34;4998165;28;20258;-84
2022/08/20 00:30:12;;;;;;;25.23;18.42;;;;;;;22.51;57.13;99754.72;4980265;28;20120;-84
2022/08/20 00:32:48;;;;;;;25.65;19.63;;;;;;;22.30;56.96;99755.84;4973792;28;20497;-84
2022/08/20 00:35:17;;;;;;;23.48;17.88;;;;;;;22.46;56.79;99755.34;5039482;28;20049;-84
2022/08/20 00:37:44;;;;;;;29.63;18.80;;;;;;;22.42;57.01;99747.91;4993615;28;20497;-84
2022/08/20 00:40:14;;;;;;;23.67;17.70;;;;;;;22.36;56.89;99749.56;4969974;28;20053;-84
2022/08/20 00:42:52;;;;;;;24.73;17.38;;;;;;;22.33;56.74;99752.72;5038853;28;20131;-84
2022/08/20 00:45:20;;;;;;;26.42;18.80;;;;;;;22.33;57.09;99761.66;4997126;28;20058;-84
2022/08/20 00:47:46;;;;;;;25.90;18.38;;;;;;;22.22;58.25;99762.34;5003681;28;20088;-85
2022/08/20 00:50:21;;;;;;;25.92;18.48;;;;;;;22.09;60.30;99759.66;4998473;28;20415;-84
2022/08/20 00:52:50;;;;;;;26.85;18.75;;;;;;;22.12;60.59;99756.50;4988194;28;20416;-85
2022/08/20 00:55:20;;;;;;;24.77;18.38;;;;;;;22.05;59.92;99753.81;4992289;28;20127;-85
2022/08/20 00:57:53;;;;;;;31.10;18.80;;;;;;;22.05;59.43;99748.41;4994230;28;20046;-85
2022/08/20 01:00:31;;;;;;;25.02;17.88;;;;;;;22.01;59.94;99759.88;4985304;28;20084;-85
2022/08/20 01:02:59;;;;;;;23.80;17.98;;;;;;;22.01;59.52;99766.13;5012316;28;20500;-85
2022/08/20 01:05:27;;;;;;;23.33;17.95;;;;;;;22.05;59.77;99770.03;4990399;28;20516;-85
2022/08/20 01:07:56;;;;;;;29.73;19.45;;;;;;;22.06;59.63;99769.00;4997287;28;20430;-85
2022/08/20 01:10:27;;;;;;;25.38;18.65;;;;;;;22.02;59.83;99772.34;5001208;28;20053;-84
2022/08/20 01:12:56;;;;;;;28.38;19.58;;;;;;;21.96;60.35;99773.22;4963309;28;20412;-85
2022/08/20 01:15:30;;;;;;;24.55;18.35;;;;;;;21.87;60.24;99786.09;5005593;28;20046;-85
2022/08/20 01:17:58;;;;;;;25.67;18.17;;;;;;;21.95;59.74;99787.75;5011563;28;20173;-85
2022/08/20 01:20:31;;;;;;;23.30;17.13;;;;;;;21.97;58.66;99791.91;4995041;28;20050;-84
2022/08/20 01:23:26;;;;;;;24.92;17.27;;;;;;;21.87;58.25;99792.34;4994115;28;20068;-84
2022/08/20 01:25:59;;;;;;;23.50;17.13;;;;;;;22.06;57.72;99787.13;4960067;28;20106;-85
2022/08/20 01:28:31;;;;;;;25.15;18.40;;;;;;;21.99;57.94;99794.41;4946273;28;20506;-85
2022/08/20 01:30:58;;;;;;;27.45;18.67;;;;;;;22.04;57.81;99791.91;4944287;28;20050;-84
2022/08/20 01:33:25;;;;;;;26.27;18.52;;;;;;;22.03;57.46;99798.34;4974542;28;20057;-85
2022/08/20 01:35:52;;;;;;;23.98;17.55;;;;;;;21.91;57.69;99798.16;4946682;28;20053;-85
2022/08/20 01:38:19;;;;;;;31.42;20.52;;;;;;;21.89;57.71;99802.94;4942312;28;20395;-85
2022/08/20 01:40:51;;;;;;;26.67;18.55;;;;;;;21.88;58.11;99791.31;4950598;28;20042;-85
2022/08/20 01:43:18;;;;;;;31.40;18.95;;;;;;;21.88;57.84;99790.47;4944168;28;20129;-84
2022/08/20 01:45:47;;;;;;;25.83;18.27;;;;;;;21.86;57.97;99792.56;4962291;28;20253;-85
2022/08/20 01:48:16;;;;;;;24.90;18.13;;;;;;;21.82;58.65;99799.41;4942646;28;20105;-84
2022/08/20 01:50:52;;;;;;;26.88;17.88;;;;;;;21.62;59.20;99800.25;4939151;28;20398;-85
2022/08/20 01:53:32;;;;;;;23.88;16.90;;;;;;;21.53;59.74;99798.00;4948498;28;20097;-84
2022/08/20 01:56:01;;;;;;;24.02;17.83;;;;;;;21.85;58.57;99804.41;4952529;28;20493;-85
2022/08/20 01:58:28;;;;;;;26.35;17.92;;;;;;;21.82;58.93;99802.13;5026983;28;20045;-85
2022/08/20 02:00:56;;;;;;;24.35;17.65;;;;;;;21.78;59.24;99806.28;5013769;28;20437;-84
2022/08/20 02:03:23;;;;;;;26.65;19.42;;;;;;;21.86;58.49;99812.31;4997396;28;20052;-85
2022/08/20 02:05:52;;;;;;;26.55;19.58;;;;;;;21.77;58.79;99818.97;5019425;28;20065;-85
2022/08/20 02:08:20;;;;;;;25.83;17.75;;;;;;;21.75;59.02;99817.50;4998696;28;20054;-84
2022/08/20 02:10:47;;;;;;;28.48;18.33;;;;;;;21.68;59.25;99809.41;4997107;28;20073;-84
2022/08/20 02:13:15;;;;;;;24.85;17.20;;;;;;;21.71;58.97;99809.00;4995603;28;20046;-85
2022/08/20 02:15:42;;;;;;;25.38;18.63;;;;;;;21.70;58.73;99814.59;4985047;28;20048;-85
2022/08/20 02:18:14;;;;;;;24.10;16.35;;;;;;;21.57;58.72;99812.72;5001826;28;20511;-84
2022/08/20 02:20:42;;;;;;;24.50;18.00;;;;;;;21.67;58.04;99813.97;5013504;28;20061;-84
2022/08/20 02:23:10;;;;;;;25.20;16.65;;;;;;;21.70;58.13;99814.59;5012440;28;20049;-85
2022/08/20 02:25:39;;;;;;;24.63;17.95;;;;;;;21.71;57.96;99810.88;5004477;28;20496;-84
2022/08/20 02:28:12;;;;;;;23.65;18.00;;;;;;;21.66;57.82;99817.72;4987292;28;20057;-84
2022/08/20 02:30:43;;;;;;;22.63;16.52;;;;;;;21.62;57.84;99818.34;4987525;28;20037;-85
2022/08/20 02:33:12;;;;;;;26.35;17.73;;;;;;;21.66;57.98;99819.59;4989074;28;20050;-84
2022/08/20 02:35:41;;;;;;;25.17;18.23;;;;;;;21.74;57.53;99815.84;4992137;28;20038;-84
2022/08/20 02:38:09;;;;;;;23.52;17.10;;;;;;;21.73;57.74;99819.59;5001123;28;20037;-85
2022/08/20 02:40:36;;;;;;;22.73;17.35;;;;;;;21.80;57.66;99821.25;5001430;28;20416;-84
2022/08/20 02:43:03;;;;;;;23.67;17.25;;;;;;;21.80;57.35;99813.13;4983041;28;20153;-84
2022/08/20 02:45:36;;;;;;;22.90;17.95;;;;;;;21.72;57.41;99817.94;5003978;28;20050;-85
2022/08/20 02:48:03;;;;;;;26.77;18.10;;;;;;;21.77;57.99;99813.56;4988732;28;20405;-85
2022/08/20 02:50:30;;;;;;;24.40;17.55;;;;;;;21.72;58.59;99809.81;5015064;28;20033;-85
2022/08/20 02:52:57;;;;;;;26.73;18.55;;;;;;;21.73;59.04;99820.44;5006927;28;20055;-84
2022/08/20 02:55:24;;;;;;;24.75;17.63;;;;;;;21.73;58.56;99815.03;5000616;28;20573;-85
2022/08/20 02:57:56;;;;;;;26.02;18.90;;;;;;;21.66;57.92;99820.44;5038746;28;20045;-85
2022/08/20 03:00:26;;;;;;;27.75;18.27;;;;;;;21.61;57.88;99814.00;4968388;28;20048;-84
2022/08/20 03:02:52;;;;;;;26.65;18.50;;;;;;;21.62;57.68;99811.06;5031641;28;20378;-84
2022/08/20 03:05:19;;;;;;;27.65;19.73;;;;;;;21.56;58.14;99808.38;5011794;28;20051;-85
2022/08/20 03:07:49;;;;;;;25.88;17.65;;;;;;;21.51;58.06;99806.31;5024808;28;22386;-85
2022/08/20 03:10:16;;;;;;;26.83;18.58;;;;;;;21.60;58.07;99807.75;5013244;28;20511;-85
2022/08/20 03:12:42;;;;;;;25.85;19.00;;;;;;;21.63;57.77;99803.81;5001360;28;20056;-85
2022/08/20 03:15:10;;;;;;;25.98;18.83;;;;;;;21.58;58.13;99803.59;5007244;28;20055;-84
2022/08/20 03:17:44;;;;;;;25.60;17.13;;;;;;;21.54;58.21;99810.47;5004183;28;20041;-85
2022/08/20 03:20:12;;;;;;;28.88;17.13;;;;;;;21.60;58.13;99809.59;4960098;28;20057;-85
2022/08/20 03:22:38;;;;;;;21.15;15.85;;;;;;;21.62;58.09;99805.66;4985419;28;20144;-84
2022/08/20 03:25:06;;;;;;;25.38;17.10;;;;;;;21.66;58.01;99808.78;5013233;28;20049;-84
2022/08/20 03:27:33;;;;;;;21.58;15.05;;;;;;;21.70;57.61;99812.72;5000100;28;20041;-84
2022/08/20 03:30:05;;;;;;;20.58;15.23;;;;;;;21.63;58.02;99806.50;4996029;28;20044;-84
2022/08/20 03:32:32;;;;;;;20.73;14.90;;;;;;;21.72;57.60;99807.94;5010207;28;20042;-85
2022/08/20 03:34:58;;;;;;;22.25;15.75;;;;;;;21.69;57.69;99797.56;4981553;28;20042;-85
2022/08/20 03:37:29;;;;;;;23.23;15.63;;;;;;;21.63;58.16;99801.09;4996580;28;20042;-85
2022/08/20 03:39:56;;;;;;;20.15;14.50;;;;;;;21.64;58.08;99805.47;5000935;28;20046;-84
2022/08/20 03:42:23;;;;;;;25.45;14.13;;;;;;;21.66;58.05;99800.69;4999676;28;20527;-84
2022/08/20 03:44:50;;;;;;;19.48;14.68;;;;;;;21.62;58.69;99810.25;4984248;28;20412;-84
2022/08/20 03:47:25;;;;;;;21.35;14.50;;;;;;;21.61;58.34;99805.88;5037546;28;20277;-85
2022/08/20 03:49:57;;;;;;;19.10;13.15;;;;;;;21.51;58.35;99809.00;4995230;28;20133;-85
2022/08/20 03:52:24;;;;;;;21.90;15.73;;;;;;;21.65;58.10;99807.13;4986243;28;20046;-85
2022/08/20 03:54:51;;;;;;;22.15;14.98;;;;;;;21.62;58.45;99807.53;4996267;28;20440;-84
2022/08/20 03:57:18;;;;;;;17.80;14.00;;;;;;;21.60;58.62;99806.91;5020431;28;20042;-85
2022/08/20 03:59:45;;;;;;;18.15;13.10;;;;;;;21.67;58.48;99813.97;5000174;28;20049;-84
2022/08/20 04:02:15;;;;;;;18.38;13.77;;;;;;;21.65;58.45;99818.78;4991272;28;20238;-85
2022/08/20 04:04:42;;;;;;;23.33;14.15;;;;;;;21.71;58.27;99821.69;5002725;28;20118;-84
2022/08/20 04:07:16;;;;;;;23.77;13.18;;;;;;;21.75;58.47;99810.22;4999412;28;20222;-84
2022/08/20 04:09:42;;;;;;;15.63;12.18;;;;;;;21.77;58.69;99805.44;4995976;28;20067;-85
2022/08/20 04:12:12;;;;;;;16.90;10.38;;;;;;;21.77;58.66;99812.72;4975686;28;20054;-84
2022/08/20 04:14:39;;;;;;;17.20;10.88;;;;;;;21.78;58.77;99812.53;5019116;28;20043;-85
2022/08/20 04:17:08;;;;;;;13.05;9.63;;;;;;;21.82;58.51;99815.63;4983450;28;20049;-85
2022/08/20 04:19:36;;;;;;;14.88;10.10;;;;;;;21.79;58.78;99810.66;5000732;28;20092;-85
2022/08/20 04:22:03;;;;;;;15.70;10.15;;;;;;;21.80;58.99;99809.59;5004356;28;20410;-85
2022/08/20 04:24:30;;;;;;;12.18;9.85;;;;;;;21.81;58.88;99814.81;4985349;28;20064;-84
2022/08/20 04:27:01;;;;;;;12.70;9.30;;;;;;;21.81;58.84;99816.69;4981513;28;21148;-85
2022/08/20 04:29:28;;;;;;;14.95;9.48;;;;;;;21.78;59.07;99815.25;4998247;28;20121;-85
2022/08/20 04:31:59;;;;;;;11.73;8.50;;;;;;;21.76;59.19;99817.31;4998221;28;20065;-84
2022/08/20 04:34:28;;;;;;;13.35;9.30;;;;;;;21.79;59.28;99808.78;4994724;28;20050;-84
2022/08/20 04:36:55;;;;;;;16.92;8.27;;;;;;;21.82;59.19;99815.63;4998699;28;20096;-84
2022/08/20 04:39:22;;;;;;;12.80;9.35;;;;;;;21.82;59.64;99823.75;4996244;28;20536;-85
2022/08/20 04:41:49;;;;;;;10.18;8.10;;;;;;;21.86;59.39;99830.41;4998304;28;20050;-85
2022/08/20 04:44:16;;;;;;;11.43;8.07;;;;;;;21.84;59.57;99829.78;4981958;28;20056;-84
2022/08/20 04:46:42;;;;;;;10.38;7.57;;;;;;;21.91;59.28;99827.09;5008938;28;20472;-84
2022/08/20 04:49:09;;;;;;;12.35;7.63;;;;;;;21.88;59.44;99820.22;4996527;28;20057;-85
2022/08/20 04:51:36;;;;;;;13.43;7.30;;;;;;;21.90;59.83;99828.94;4997531;28;20084;-84
2022/08/20 04:54:03;;;;;;;11.27;7.32;;;;;;;21.90;59.87;99820.81;4994903;28;20037;-84
2022/08/20 04:56:37;;;;;;;11.73;7.10;;;;;;;21.90;59.86;99823.53;4998024;28;24655;-85
2022/08/20 04:59:04;;;;;;;11.70;7.47;;;;;;;21.88;60.13;99821.03;4998576;28;20033;-85
2022/08/20 05:01:32;;;;;;;9.00;6.70;;;;;;;21.84;60.32;99819.78;4983431;28;20053;-84
2022/08/20 05:03:59;;;;;;;13.45;9.23;;;;;;;21.86;59.89;99831.22;4993610;28;20527;-85
2022/08/20 05:06:28;;;;;;;15.63;10.90;;;;;;;21.82;60.42;99832.69;4983939;28;20044;-84
2022/08/20 05:08:56;;;;;;;12.35;8.57;;;;;;;21.81;60.35;99831.03;5003378;28;20042;-84
2022/08/20 05:11:24;;;;;;;18.27;10.85;;;;;;;21.81;60.60;99833.72;4978663;28;20049;-84
2022/08/20 05:14:04;;;;;;;15.40;10.65;;;;;;;21.78;60.74;99836.00;4994195;28;20048;-85
2022/08/20 05:16:36;;;;;;;16.95;10.55;;;;;;;21.77;60.95;99845.16;4951688;28;20559;-84
2022/08/20 05:19:03;;;;;;;14.73;10.32;;;;;;;21.79;60.78;99834.97;4994504;28;20123;-85
2022/08/20 05:21:30;;;;;;;13.82;9.70;;;;;;;21.79;60.75;99843.91;4983225;28;20038;-85
2022/08/20 05:23:56;;;;;;;15.35;10.38;;;;;;;21.84;60.68;99846.00;4995225;28;20037;-84
2022/08/20 05:26:25;;;;;;;15.60;10.00;;;;;;;21.84;60.64;99857.63;4984145;28;20049;-85
2022/08/20 05:28:52;;;;;;;17.55;10.68;;;;;;;21.81;61.01;99858.06;4995962;28;20048;-84
2022/08/20 05:31:28;;;;;;;12.85;10.13;;;;;;;21.76;61.45;99862.44;4963695;28;20045;-85
2022/08/20 05:34:09;;;;;;;14.52;9.50;;;;;;;21.67;61.69;99861.78;4998800;28;20038;-85
2022/08/20 05:36:45;;;;;;;14.07;9.73;;;;;;;21.79;61.26;99862.84;5027238;28;20046;-85
2022/08/20 05:39:19;;;;;;;13.82;9.75;;;;;;;21.84;60.97;99873.03;4963795;28;22466;-85
2022/08/20 05:41:49;;;;;;;10.77;7.90;;;;;;;21.90;61.34;99891.09;4988447;28;20967;-84
2022/08/20 05:44:17;;;;;;;10.75;7.35;;;;;;;21.98;60.91;99882.81;4975063;28;20097;-83
2022/08/20 05:46:46;;;;;;;9.73;6.05;;;;;;;22.01;60.95;99884.25;4945378;28;20047;-82
2022/08/20 05:49:19;;;;;;;9.30;6.18;;;;;;;21.97;61.27;99885.72;4997871;28;20043;-83
2022/08/20 05:51:46;;;;;;;9.48;5.57;;;;;;;22.07;60.79;99881.53;4956223;28;20053;-83
2022/08/20 05:54:13;;;;;;;9.60;6.00;;;;;;;22.08;60.84;99883.22;4950371;28;20034;-83
2022/08/20 05:56:40;;;;;;;10.60;6.20;;;;;;;22.10;60.77;99878.41;4993371;28;20050;-86
2022/08/20 05:59:08;;;;;;;7.50;5.60;;;;;;;22.15;60.66;99880.47;4954224;28;20073;-83
2022/08/20 06:01:37;;;;;;;7.97;5.93;;;;;;;22.13;60.62;99882.56;4965659;28;20046;-83
2022/08/20 06:07:42;;;;;;;7.65;5.55;;;;;;;21.92;61.91;99894.44;4998623;28;20092;-93
2022/08/20 06:10:10;;;;;;;10.55;5.78;;;;;;;22.09;60.88;99884.88;4911105;28;20055;-92
2022/08/20 06:12:37;;;;;;;11.13;5.95;;;;;;;22.16;60.87;99890.28;4982529;28;20050;-91
2022/08/20 06:15:57;;;;;;;9.43;6.75;;;;;;;21.98;61.77;99890.06;4962366;28;20057;-91
2022/08/20 06:23:14;;;;;;;8.18;5.68;;;;;;;22.14;61.31;99889.66;4961710;28;20490;-89
2022/08/20 06:25:42;;;;;;;9.27;5.75;;;;;;;22.12;61.33;99894.44;4982571;28;20043;-89
2022/08/20 06:28:09;;;;;;;13.15;6.68;;;;;;;22.20;60.88;99891.53;4965726;28;20043;-89
2022/08/20 06:30:37;;;;;;;8.50;6.07;;;;;;;22.22;61.14;99884.03;4994009;28;20529;-90
2022/08/20 06:33:04;;;;;;;7.68;5.80;;;;;;;22.24;61.12;99889.25;4969274;28;20515;-86
2022/08/20 06:35:32;;;;;;;7.47;5.93;;;;;;;22.25;61.19;99893.63;4994905;28;20104;-89
2022/08/20 06:38:00;;;;;;;10.38;6.20;;;;;;;22.27;61.24;99889.66;4967974;28;20513;-89
2022/08/20 06:40:27;;;;;;;7.93;5.72;;;;;;;22.27;61.21;99892.34;4966591;28;20046;-89
2022/08/20 06:42:55;;;;;;;7.57;5.85;;;;;;;22.27;61.32;99896.94;5000765;28;20046;-83
2022/08/20 06:45:25;;;;;;;8.15;5.72;;;;;;;22.26;61.42;99896.13;4967952;28;20062;-83
2022/08/20 06:51:57;;;;;;;10.18;7.03;;;;;;;22.30;61.48;99905.47;4935084;28;20073;-93
2022/08/20 06:58:17;;;;;;;7.55;5.47;;;;;;;22.33;61.60;99898.78;4937602;28;20050;-89
2022/08/20 07:01:59;;;;;;;12.07;5.95;;;;;;;22.19;62.42;99894.44;4996603;28;20057;-90
2022/08/20 07:04:27;;;;;;;9.38;5.55;;;;;;;22.39;61.60;99895.25;4891778;28;20069;-88
2022/08/20 07:06:56;;;;;;;11.55;5.30;;;;;;;22.43;61.49;99898.38;5000327;28;20046;-88
2022/08/20 07:09:24;;;;;;;8.75;5.32;;;;;;;22.43;61.60;99895.66;4981968;28;20061;-90
2022/08/20 07:11:56;;;;;;;7.03;5.53;;;;;;;22.47;61.76;99894.22;5000574;28;20046;-87
2022/08/20 07:14:24;;;;;;;7.88;5.68;;;;;;;22.58;61.54;99898.13;4949951;28;20050;-84
2022/08/20 07:16:51;;;;;;;7.45;5.13;;;;;;;22.65;61.59;99893.53;4980856;28;20509;-84
2022/08/20 07:19:18;;;;;;;7.50;4.93;;;;;;;22.73;61.42;99904.13;4984216;28;20050;-84
2022/08/20 07:21:49;;;;;;;11.40;5.10;;;;;;;22.71;61.56;99907.03;4972173;28;20487;-83
2022/08/20 07:24:18;;;;;;;7.13;4.95;;;;;;;22.83;61.26;99906.38;4983631;28;20122;-86
2022/08/20 07:26:45;;;;;;;6.32;4.85;;;;;;;22.86;61.08;99904.06;4967601;28;20042;-84
2022/08/20 07:29:12;;;;;;;7.60;4.45;;;;;;;22.87;61.20;99897.63;4952515;28;20054;-89
2022/08/20 07:34:26;;;;;;;8.23;4.72;;;;;;;22.96;60.95;99906.31;4965513;28;20042;-89
2022/08/20 07:36:53;;;;;;;7.35;4.93;;;;;;;23.00;61.28;99901.31;4994714;28;20043;-88
2022/08/20 07:39:20;;;;;;;10.90;5.15;;;;;;;22.99;60.86;99903.19;4984424;28;20053;-89
2022/08/20 07:42:01;;;;;;;10.27;4.93;;;;;;;23.01;61.00;99905.72;4986423;28;20052;-85
2022/08/20 07:44:29;;;;;;;5.80;4.47;;;;;;;23.04;60.95;99906.09;4981411;28;20046;-90
2022/08/20 07:46:59;;;;;;;7.43;4.88;;;;;;;23.07;60.91;99911.06;4982155;28;20054;-90
2022/08/20 07:49:26;;;;;;;7.53;4.68;;;;;;;23.09;60.80;99916.28;4966730;28;20509;-89
2022/08/20 07:51:53;;;;;;;8.20;5.28;;;;;;;23.12;60.62;99913.16;4976895;28;20035;-89
2022/08/20 07:54:20;;;;;;;10.65;5.40;;;;;;;23.15;61.07;99910.00;4982533;28;20046;-89
2022/08/20 07:56:47;;;;;;;6.88;4.80;;;;;;;23.17;60.56;99913.31;4967987;28;20034;-89
2022/08/20 07:59:19;;;;;;;7.50;4.80;;;;;;;23.19;60.64;99917.47;4980626;28;20097;-86
2022/08/20 08:01:46;;;;;;;6.28;4.22;;;;;;;23.24;60.52;99911.41;4964340;28;20050;-85
2022/08/20 08:04:12;;;;;;;8.07;4.45;;;;;;;23.28;60.82;99914.50;4984055;28;20046;-84
2022/08/20 08:06:41;;;;;;;6.50;4.45;;;;;;;23.33;60.42;99911.97;4983029;28;20516;-85
2022/08/20 08:09:13;;;;;;;5.82;3.88;;;;;;;23.34;60.93;99921.78;4968401;28;20054;-85
2022/08/20 08:11:48;;;;;;;;;;;;;;;23.19;61.32;99924.78;4984722;28;20049;-85
2022/08/20 08:14:22;;;;;;;7.47;4.70;;;;;;;23.38;60.92;99923.00;4999730;28;19922;-84
2022/08/20 08:16:56;;;;;;;6.40;5.00;;;;;;;23.28;61.21;99923.50;4954079;28;20061;-85
2022/08/20 08:19:24;;;;;;;8.18;4.72;;;;;;;23.36;60.57;99920.53;4947536;28;20042;-87
2022/08/20 08:21:51;;;;;;;6.05;4.80;;;;;;;23.36;60.77;99915.09;4983600;28;20049;-88
2022/08/20 08:24:20;;;;;;;7.75;4.80;;;;;;;23.43;60.65;99909.63;4984590;28;20049;-88
2022/08/20 08:26:53;;;;;;;7.40;4.18;;;;;;;23.47;60.70;99918.16;4967333;28;20053;-87
2022/08/20 08:29:20;;;;;;;6.50;5.00;;;;;;;23.53;60.71;99911.88;4996139;28;20110;-87
2022/08/20 08:31:46;;;;;;;6.93;5.35;;;;;;;23.57;60.50;99913.09;4980025;28;20455;-88
2022/08/20 08:34:13;;;;;;;7.63;5.00;;;;;;;23.59;60.50;99913.72;4967953;28;20117;-88
2022/08/20 08:36:42;;;;;;;7.10;4.60;;;;;;;23.63;60.28;99917.63;4964472;28;20398;-83
2022/08/20 08:39:11;;;;;;;6.63;4.60;;;;;;;23.64;60.38;99923.91;4967615;28;20050;-82
2022/08/20 08:41:46;;;;;;;7.53;5.35;;;;;;;23.63;60.12;99923.06;4964368;28;20516;-81
2022/08/20 08:44:49;;;;;;;8.23;4.35;;;;;;;23.52;60.79;99927.31;4931157;28;20042;-82
2022/08/20 08:47:28;;;;;;;9.18;5.47;;;;;;;23.56;60.40;99933.97;4897674;28;20051;-81
2022/08/20 08:49:55;;;;;;;8.30;5.32;;;;;;;23.64;59.99;99938.28;4953218;28;20042;-81
2022/08/20 08:52:28;;;;;;;10.25;6.10;;;;;;;23.64;60.20;99938.28;4981309;28;20046;-83
2022/08/20 08:54:58;;;;;;;8.32;5.43;;;;;;;23.68;60.11;99930.53;4976747;28;20039;-80
2022/08/20 08:57:25;;;;;;;9.70;5.82;;;;;;;23.69;60.53;99932.22;4961925;28;20498;-81
2022/08/20 08:59:58;;;;;;;8.75;6.30;;;;;;;23.69;60.34;99934.94;4962871;28;20514;-81
2022/08/20 09:02:30;;;;;;;7.68;5.70;;;;;;;23.71;60.22;99936.38;4981000;28;20061;-86
2022/08/20 09:04:59;;;;;;;8.88;5.55;;;;;;;23.72;60.13;99937.19;4981476;28;20041;-87
2022/08/20 09:07:31;;;;;;;8.70;6.05;;;;;;;23.73;60.24;99938.88;4965967;28;20049;-80
2022/08/20 09:09:59;;;;;;;25.38;15.23;;;;;;;23.79;59.94;99933.41;4963018;28;20425;-82
2022/08/20 09:12:26;;;;;;;12.27;8.18;;;;;;;23.84;59.90;99930.06;4964551;28;20403;-82
2022/08/20 09:14:53;;;;;;;8.95;6.32;;;;;;;23.88;60.01;99920.41;4965752;28;20089;-83
2022/08/20 09:17:21;;;;;;;8.20;7.13;;;;;;;23.97;59.42;99923.69;4967269;28;20046;-92
2022/08/20 09:19:50;;;;;;;7.88;6.32;;;;;;;23.82;59.45;99914.00;4981289;28;20042;-92
2022/08/20 09:22:21;;;;;;;7.82;6.43;;;;;;;23.87;59.31;99918.75;4973929;28;20053;-90
2022/08/20 09:24:48;;;;;;;10.43;6.07;;;;;;;23.97;59.29;99912.84;4996973;28;20057;-89
2022/08/20 09:27:15;;;;;;;9.32;7.43;;;;;;;24.02;59.32;99910.28;4967146;28;20046;-90
2022/08/20 09:29:42;;;;;;;9.52;6.82;;;;;;;24.06;59.14;99919.63;4979516;28;20100;-91
2022/08/20 09:32:13;;;;;;;9.45;7.50;;;;;;;24.07;58.97;99915.88;4953403;28;20795;-88
2022/08/20 09:34:43;;;;;;;9.52;7.07;;;;;;;24.00;59.14;99913.22;4982252;28;20038;-90
2022/08/20 09:37:10;;;;;;;12.63;6.45;;;;;;;24.00;59.21;99920.53;4962460;28;20702;-92
2022/08/20 09:39:37;;;;;;;10.00;6.78;;;;;;;23.99;59.42;99919.72;4996876;28;20066;-89
2022/08/20 09:42:07;;;;;;;11.02;7.50;;;;;;;23.94;59.30;99919.53;4981808;28;20042;-91
2022/08/20 09:44:34;;;;;;;8.35;7.00;;;;;;;23.91;59.59;99924.56;4983668;28;20065;-91
2022/08/20 09:47:00;;;;;;;9.98;6.50;;;;;;;23.89;60.00;99923.94;4979609;28;20057;-84
2022/08/20 09:49:27;;;;;;;7.93;7.13;;;;;;;23.85;59.58;99923.56;4948931;28;20510;-83
2022/08/20 09:51:58;;;;;;;12.30;7.18;;;;;;;23.83;59.63;99922.94;4971295;28;20046;-83
2022/08/20 09:54:28;;;;;;;9.65;7.90;;;;;;;23.79;60.19;99917.16;4968949;28;20049;-85
2022/08/20 09:57:06;;;;;;;12.07;7.32;;;;;;;23.73;60.27;99918.00;4961653;28;20042;-86
2022/08/20 09:59:34;;;;;;;8.32;6.60;;;;;;;23.85;60.29;99925.44;4978769;28;20046;-87
2022/08/20 10:02:01;;;;;;;11.55;8.32;;;;;;;23.90;60.14;99923.72;4936299;28;20051;-85
2022/08/20 10:04:28;;;;;;;9.43;6.35;;;;;;;23.99;60.47;99918.84;5000659;28;20050;-83
2022/08/20 10:06:56;;;;;;;7.80;6.00;;;;;;;24.00;60.49;99920.53;4936324;28;20038;-83
2022/08/20 10:09:24;;;;;;;11.38;8.15;;;;;;;24.04;60.41;99924.44;4967076;28;20078;-83
2022/08/20 10:11:50;;;;;;;9.57;6.93;;;;;;;24.03;60.37;99923.63;4994696;28;20108;-84
2022/08/20 10:14:17;;;;;;;8.35;7.35;;;;;;;24.07;60.30;99912.31;4991317;28;20046;-83
2022/08/20 10:16:44;;;;;;;12.77;8.15;;;;;;;24.06;60.19;99925.06;4977634;28;20058;-81
2022/08/20 10:19:10;;;;;;;11.70;7.55;;;;;;;24.05;60.29;99918.81;4986527;28;20053;-81
2022/08/20 10:21:38;;;;;;;10.02;6.97;;;;;;;24.09;59.90;99921.06;4999130;28;20050;-82
2022/08/20 10:24:05;;;;;;;10.38;8.13;;;;;;;24.13;59.51;99919.59;4981223;28;20137;-84
2022/08/20 10:26:32;;;;;;;11.32;7.80;;;;;;;24.19;58.96;99921.38;4955243;28;20053;-82
2022/08/20 10:28:58;;;;;;;12.32;7.85;;;;;;;24.23;58.74;99911.75;4957014;28;20046;-81
2022/08/20 10:31:25;;;;;;;9.95;8.00;;;;;;;24.30;58.47;99908.97;4977093;28;20823;-83
2022/08/20 10:33:53;;;;;;;19.00;13.23;;;;;;;24.38;57.87;99904.09;4984861;28;20560;-81
2022/08/20 10:36:21;;;;;;;12.88;10.20;;;;;;;24.43;57.74;99906.16;4984308;28;20475;-83
2022/08/20 10:38:53;;;;;;;15.23;10.77;;;;;;;24.44;57.58;99903.19;4983705;28;20506;-87
2022/08/20 10:41:49;;;;;;;11.80;10.43;;;;;;;24.39;57.20;99904.91;4997141;28;20053;-87
2022/08/20 10:44:41;;;;;;;10.75;8.90;;;;;;;24.36;57.59;99905.38;4909895;28;20054;-83
2022/08/20 10:47:27;;;;;;;9.88;8.00;;;;;;;24.38;57.39;99898.66;4974711;28;20066;-87
2022/08/20 10:49:59;;;;;;;10.15;6.03;;;;;;;24.35;59.69;99912.69;4978933;28;20113;-83
2022/08/20 10:52:26;;;;;;;17.40;9.23;;;;;;;24.21;60.61;99919.28;4976320;28;20465;-82
2022/08/20 10:54:54;;;;;;;12.27;7.60;;;;;;;24.11;61.32;99916.25;4945902;28;20442;-83
2022/08/20 10:57:26;;;;;;;10.63;7.53;;;;;;;23.89;61.80;99922.09;4951597;28;20069;-83
2022/08/20 10:59:55;;;;;;;11.77;7.87;;;;;;;23.73;63.15;99931.56;4950220;28;20051;-83
2022/08/20 11:02:29;;;;;;;14.82;9.07;;;;;;;23.55;64.54;99929.56;4953300;28;20050;-89
2022/08/20 11:05:52;;;;;;;14.80;8.20;;;;;;;23.24;66.74;99943.09;4720087;29;20093;-93
2022/08/20 11:08:34;;;;;;;7.25;5.78;;;;;;;23.13;65.66;99942.72;4748489;30;20060;-85
2022/08/20 11:11:40;;;;;;;12.73;6.78;;;;;;;22.76;68.22;99949.69;4711055;30;20414;-90
2022/08/20 11:14:26;;;;;;;9.55;6.35;;;;;;;22.89;67.69;99948.84;4699029;30;20110;-91
2022/08/20 11:17:07;;;;;;;11.63;8.05;;;;;;;22.88;68.44;99960.72;4712072;30;20048;-83
2022/08/20 11:19:49;;;;;;;11.63;7.85;;;;;;;22.76;69.66;99966.78;4715109;30;20057;-82
2022/08/20 11:23:26;;;;;;;19.52;9.07;;;;;;;22.50;73.70;99966.84;4794885;29;20106;-82
2022/08/20 11:26:07;;;;;;;20.83;10.52;;;;;;;22.60;70.91;99959.13;4748560;29;20063;-82
2022/08/20 11:28:33;;;;;;;23.85;11.18;;;;;;;22.67;71.74;99957.22;4799378;29;20046;-79
2022/08/20 11:31:00;;;;;;;21.48;10.60;;;;;;;22.66;72.21;99954.72;4882792;28;20034;-81
2022/08/20 11:33:27;;;;;;;19.42;10.30;;;;;;;22.75;72.36;99956.19;4982132;28;20148;-85
2022/08/20 11:35:54;;;;;;;18.20;9.98;;;;;;;22.81;72.74;99951.78;4985851;28;20042;-88
2022/08/20 11:42:46;;;;;;;20.08;11.27;;;;;;;22.95;72.23;99950.69;4951071;28;20038;-85
2022/08/20 11:45:35;;;;;;;19.15;11.25;;;;;;;23.05;73.38;99940.28;4992246;28;20072;-83
2022/08/20 11:48:08;;;;;;;19.52;11.75;;;;;;;23.09;74.12;99941.50;5001951;28;20049;-83
2022/08/20 11:50:35;;;;;;;16.70;11.82;;;;;;;23.16;72.84;99945.00;4983718;28;20096;-84
2022/08/20 11:53:02;;;;;;;19.50;10.75;;;;;;;23.22;72.56;99940.59;4980539;28;20042;-82
2022/08/20 11:55:29;;;;;;;16.98;10.82;;;;;;;23.22;72.29;99935.19;4979367;28;20046;-86
2022/08/20 11:57:59;;;;;;;18.70;11.38;;;;;;;23.25;72.38;99937.44;4966401;28;20049;-86
2022/08/20 12:00:28;;;;;;;17.70;11.38;;;;;;;23.28;72.27;99939.75;4983247;28;20050;-84
2022/08/20 12:03:03;;;;;;;14.90;11.15;;;;;;;23.31;72.63;99933.91;4964881;28;20069;-86